sensor_id;sensor_type;location;lat;lon;timestamp;pressure;altitude;pressure_sealevel;temperature
55038;BMP280;40937;53.594;10.034;2023-02-28T00:00:56;103302.41;;;4.63
55038;BMP280;40937;53.594;10.034;2023-02-28T00:03:23;103302.28;;;4.64
55038;BMP280;40937;53.594;10.034;2023-02-28T00:05:50;103308.44;;;4.63
55038;BMP280;40937;53.594;10.034;2023-02-28T00:08:17;103305.41;;;4.58
55038;BMP280;40937;53.594;10.034;2023-02-28T00:10:45;103294.22;;;4.56
55038;BMP280;40937;53.594;10.034;2023-02-28T00:13:13;103303.97;;;4.54
55038;BMP280;40937;53.594;10.034;2023-02-28T00:15:41;103300.91;;;4.49
55038;BMP280;40937;53.594;10.034;2023-02-28T00:18:08;103300.41;;;4.44
55038;BMP280;40937;53.594;10.034;2023-02-28T00:20:35;103309.63;;;4.38
55038;BMP280;40937;53.594;10.034;2023-02-28T00:23:03;103307.13;;;4.36
55038;BMP280;40937;53.594;10.034;2023-02-28T00:25:30;103310.69;;;4.35
55038;BMP280;40937;53.594;10.034;2023-02-28T00:27:57;103305.69;;;4.32
55038;BMP280;40937;53.594;10.034;2023-02-28T00:30:26;103306.75;;;4.30
55038;BMP280;40937;53.594;10.034;2023-02-28T00:32:54;103311.16;;;4.29
55038;BMP280;40937;53.594;10.034;2023-02-28T00:35:21;103304.63;;;4.24
55038;BMP280;40937;53.594;10.034;2023-02-28T00:37:48;103309.75;;;4.14
55038;BMP280;40937;53.594;10.034;2023-02-28T00:40:16;103305.13;;;4.06
55038;BMP280;40937;53.594;10.034;2023-02-28T00:42:43;103308.13;;;4.13
55038;BMP280;40937;53.594;10.034;2023-02-28T00:45:10;103304.53;;;4.14
55038;BMP280;40937;53.594;10.034;2023-02-28T00:47:39;103310.72;;;4.13
55038;BMP280;40937;53.594;10.034;2023-02-28T00:50:08;103312.50;;;4.12
55038;BMP280;40937;53.594;10.034;2023-02-28T00:52:36;103309.53;;;4.06
55038;BMP280;40937;53.594;10.034;2023-02-28T00:55:04;103310.84;;;4.00
55038;BMP280;40937;53.594;10.034;2023-02-28T00:57:32;103318.31;;;4.05
55038;BMP280;40937;53.594;10.034;2023-02-28T01:00:00;103310.72;;;4.01
55038;BMP280;40937;53.594;10.034;2023-02-28T01:02:27;103311.44;;;4.03
55038;BMP280;40937;53.594;10.034;2023-02-28T01:04:56;103315.00;;;4.02
55038;BMP280;40937;53.594;10.034;2023-02-28T01:07:23;103315.94;;;4.01
55038;BMP280;40937;53.594;10.034;2023-02-28T01:09:50;103311.44;;;3.92
55038;BMP280;40937;53.594;10.034;2023-02-28T01:12:18;103319.66;;;3.76
55038;BMP280;40937;53.594;10.034;2023-02-28T01:14:46;103317.84;;;3.77
55038;BMP280;40937;53.594;10.034;2023-02-28T01:17:13;103321.19;;;3.79
55038;BMP280;40937;53.594;10.034;2023-02-28T01:19:41;103316.66;;;3.81
55038;BMP280;40937;53.594;10.034;2023-02-28T01:22:10;103321.66;;;3.84
55038;BMP280;40937;53.594;10.034;2023-02-28T01:24:38;103320.09;;;3.81
55038;BMP280;40937;53.594;10.034;2023-02-28T01:27:05;103328.53;;;3.85
55038;BMP280;40937;53.594;10.034;2023-02-28T01:29:32;103329.50;;;3.84
55038;BMP280;40937;53.594;10.034;2023-02-28T01:31:59;103323.09;;;3.88
55038;BMP280;40937;53.594;10.034;2023-02-28T01:34:26;103324.72;;;3.89
55038;BMP280;40937;53.594;10.034;2023-02-28T01:36:54;103327.22;;;3.91
55038;BMP280;40937;53.594;10.034;2023-02-28T01:39:22;103329.13;;;3.89
55038;BMP280;40937;53.594;10.034;2023-02-28T01:41:49;103321.19;;;3.90
55038;BMP280;40937;53.594;10.034;2023-02-28T01:47:22;103319.28;;;3.92
55038;BMP280;40937;53.594;10.034;2023-02-28T01:49:51;103311.56;;;3.91
55038;BMP280;40937;53.594;10.034;2023-02-28T01:52:19;103312.41;;;3.91
55038;BMP280;40937;53.594;10.034;2023-02-28T01:54:51;103313.47;;;3.89
55038;BMP280;40937;53.594;10.034;2023-02-28T01:57:21;103310.97;;;3.87
55038;BMP280;40937;53.594;10.034;2023-02-28T01:59:52;103312.66;;;3.88
55038;BMP280;40937;53.594;10.034;2023-02-28T02:02:22;103314.28;;;3.89
55038;BMP280;40937;53.594;10.034;2023-02-28T02:04:53;103317.88;;;3.88
55038;BMP280;40937;53.594;10.034;2023-02-28T02:07:21;103307.19;;;3.91
55038;BMP280;40937;53.594;10.034;2023-02-28T02:09:50;103305.75;;;3.87
55038;BMP280;40937;53.594;10.034;2023-02-28T02:12:29;103305.50;;;3.90
55038;BMP280;40937;53.594;10.034;2023-02-28T02:15:06;103308.34;;;3.87
55038;BMP280;40937;53.594;10.034;2023-02-28T02:17:39;103312.88;;;3.85
55038;BMP280;40937;53.594;10.034;2023-02-28T02:20:27;103315.84;;;3.80
55038;BMP280;40937;53.594;10.034;2023-02-28T02:25:53;103310.03;;;3.77
55038;BMP280;40937;53.594;10.034;2023-02-28T02:28:47;103303.97;;;3.76
55038;BMP280;40937;53.594;10.034;2023-02-28T02:31:53;103294.59;;;3.74
55038;BMP280;40937;53.594;10.034;2023-02-28T02:34:31;103303.16;;;3.76
55038;BMP280;40937;53.594;10.034;2023-02-28T02:37:09;103315.47;;;3.74
55038;BMP280;40937;53.594;10.034;2023-02-28T02:39:47;103312.16;;;3.72
55038;BMP280;40937;53.594;10.034;2023-02-28T02:42:21;103302.19;;;3.65
55038;BMP280;40937;53.594;10.034;2023-02-28T02:44:56;103305.13;;;3.61
55038;BMP280;40937;53.594;10.034;2023-02-28T02:47:28;103304.53;;;3.57
55038;BMP280;40937;53.594;10.034;2023-02-28T02:50:02;103303.09;;;3.53
55038;BMP280;40937;53.594;10.034;2023-02-28T02:52:37;103309.53;;;3.49
55038;BMP280;40937;53.594;10.034;2023-02-28T02:55:07;103300.97;;;3.47
55038;BMP280;40937;53.594;10.034;2023-02-28T02:57:41;103294.22;;;3.44
55038;BMP280;40937;53.594;10.034;2023-02-28T03:00:12;103294.34;;;3.43
55038;BMP280;40937;53.594;10.034;2023-02-28T03:02:41;103299.69;;;3.41
55038;BMP280;40937;53.594;10.034;2023-02-28T03:05:18;103289.59;;;3.37
55038;BMP280;40937;53.594;10.034;2023-02-28T03:07:48;103297.88;;;3.31
55038;BMP280;40937;53.594;10.034;2023-02-28T03:10:31;103301.66;;;3.26
55038;BMP280;40937;53.594;10.034;2023-02-28T03:13:36;103301.19;;;3.21
55038;BMP280;40937;53.594;10.034;2023-02-28T03:16:29;103304.00;;;3.18
55038;BMP280;40937;53.594;10.034;2023-02-28T03:19:19;103304.25;;;3.15
55038;BMP280;40937;53.594;10.034;2023-02-28T03:21:58;103303.97;;;3.07
55038;BMP280;40937;53.594;10.034;2023-02-28T03:24:32;103308.66;;;3.02
55038;BMP280;40937;53.594;10.034;2023-02-28T03:27:07;103310.56;;;3.00
55038;BMP280;40937;53.594;10.034;2023-02-28T03:29:39;103309.03;;;2.97
55038;BMP280;40937;53.594;10.034;2023-02-28T03:32:12;103314.59;;;2.92
55038;BMP280;40937;53.594;10.034;2023-02-28T03:34:47;103312.31;;;2.88
55038;BMP280;40937;53.594;10.034;2023-02-28T03:37:20;103305.66;;;2.84
55038;BMP280;40937;53.594;10.034;2023-02-28T03:39:54;103306.72;;;2.81
55038;BMP280;40937;53.594;10.034;2023-02-28T03:42:25;103316.66;;;2.76
55038;BMP280;40937;53.594;10.034;2023-02-28T03:44:57;103305.47;;;2.74
55038;BMP280;40937;53.594;10.034;2023-02-28T03:47:29;103309.88;;;2.73
55038;BMP280;40937;53.594;10.034;2023-02-28T03:50:02;103313.28;;;2.74
55038;BMP280;40937;53.594;10.034;2023-02-28T03:52:35;103311.13;;;2.68
55038;BMP280;40937;53.594;10.034;2023-02-28T03:55:06;103315.97;;;2.61
55038;BMP280;40937;53.594;10.034;2023-02-28T03:57:39;103322.03;;;2.62
55038;BMP280;40937;53.594;10.034;2023-02-28T04:00:11;103317.88;;;2.59
55038;BMP280;40937;53.594;10.034;2023-02-28T04:02:39;103320.69;;;2.56
55038;BMP280;40937;53.594;10.034;2023-02-28T04:05:07;103320.59;;;2.58
55038;BMP280;40937;53.594;10.034;2023-02-28T04:07:36;103328.41;;;2.58
55038;BMP280;40937;53.594;10.034;2023-02-28T04:10:05;103317.81;;;2.48
55038;BMP280;40937;53.594;10.034;2023-02-28T04:12:32;103315.94;;;2.37
55038;BMP280;40937;53.594;10.034;2023-02-28T04:14:59;103319.22;;;2.28
55038;BMP280;40937;53.594;10.034;2023-02-28T04:17:26;103320.69;;;2.19
55038;BMP280;40937;53.594;10.034;2023-02-28T04:19:54;103319.31;;;2.13
55038;BMP280;40937;53.594;10.034;2023-02-28T04:22:23;103330.91;;;2.09
55038;BMP280;40937;53.594;10.034;2023-02-28T04:24:54;103327.78;;;2.04
55038;BMP280;40937;53.594;10.034;2023-02-28T04:27:21;103324.00;;;2.21
55038;BMP280;40937;53.594;10.034;2023-02-28T04:29:48;103328.28;;;2.22
55038;BMP280;40937;53.594;10.034;2023-02-28T04:32:15;103333.09;;;2.15
55038;BMP280;40937;53.594;10.034;2023-02-28T04:34:42;103327.38;;;2.10
55038;BMP280;40937;53.594;10.034;2023-02-28T04:37:10;103325.91;;;2.06
55038;BMP280;40937;53.594;10.034;2023-02-28T04:39:38;103321.31;;;1.97
55038;BMP280;40937;53.594;10.034;2023-02-28T04:42:07;103320.81;;;1.92
55038;BMP280;40937;53.594;10.034;2023-02-28T04:44:34;103324.63;;;1.99
55038;BMP280;40937;53.594;10.034;2023-02-28T04:47:01;103330.50;;;2.03
55038;BMP280;40937;53.594;10.034;2023-02-28T04:49:28;103331.53;;;2.00
55038;BMP280;40937;53.594;10.034;2023-02-28T04:51:56;103341.88;;;1.89
55038;BMP280;40937;53.594;10.034;2023-02-28T04:54:23;103330.59;;;1.75
55038;BMP280;40937;53.594;10.034;2023-02-28T04:56:50;103328.09;;;1.87
55038;BMP280;40937;53.594;10.034;2023-02-28T04:59:18;103336.66;;;1.89
55038;BMP280;40937;53.594;10.034;2023-02-28T05:01:47;103332.59;;;1.85
55038;BMP280;40937;53.594;10.034;2023-02-28T05:04:15;103337.91;;;1.83
55038;BMP280;40937;53.594;10.034;2023-02-28T05:06:42;103336.22;;;1.82
55038;BMP280;40937;53.594;10.034;2023-02-28T05:09:09;103336.53;;;1.77
55038;BMP280;40937;53.594;10.034;2023-02-28T05:11:37;103339.34;;;1.74
55038;BMP280;40937;53.594;10.034;2023-02-28T05:14:11;103335.28;;;1.70
55038;BMP280;40937;53.594;10.034;2023-02-28T05:16:40;103339.41;;;1.60
55038;BMP280;40937;53.594;10.034;2023-02-28T05:19:07;103331.09;;;1.55
55038;BMP280;40937;53.594;10.034;2023-02-28T05:21:36;103342.50;;;1.39
55038;BMP280;40937;53.594;10.034;2023-02-28T05:24:06;103348.34;;;1.30
55038;BMP280;40937;53.594;10.034;2023-02-28T05:26:34;103343.31;;;1.27
55038;BMP280;40937;53.594;10.034;2023-02-28T05:29:02;103341.25;;;1.32
55038;BMP280;40937;53.594;10.034;2023-02-28T05:31:29;103344.38;;;1.37
55038;BMP280;40937;53.594;10.034;2023-02-28T05:33:58;103347.94;;;1.49
55038;BMP280;40937;53.594;10.034;2023-02-28T05:36:25;103354.19;;;1.47
55038;BMP280;40937;53.594;10.034;2023-02-28T05:38:52;103352.72;;;1.55
55038;BMP280;40937;53.594;10.034;2023-02-28T05:41:20;103344.59;;;1.47
55038;BMP280;40937;53.594;10.034;2023-02-28T05:43:48;103347.50;;;1.42
55038;BMP280;40937;53.594;10.034;2023-02-28T05:46:16;103347.31;;;1.33
55038;BMP280;40937;53.594;10.034;2023-02-28T05:48:47;103343.03;;;1.32
55038;BMP280;40937;53.594;10.034;2023-02-28T05:51:16;103343.31;;;1.40
55038;BMP280;40937;53.594;10.034;2023-02-28T05:53:43;103354.19;;;1.47
55038;BMP280;40937;53.594;10.034;2023-02-28T05:56:11;103352.31;;;1.49
55038;BMP280;40937;53.594;10.034;2023-02-28T05:58:38;103357.72;;;1.45
55038;BMP280;40937;53.594;10.034;2023-02-28T06:01:20;103361.25;;;1.44
55038;BMP280;40937;53.594;10.034;2023-02-28T06:03:47;103354.84;;;1.23
55038;BMP280;40937;53.594;10.034;2023-02-28T06:06:16;103362.25;;;1.29
55038;BMP280;40937;53.594;10.034;2023-02-28T06:08:43;103359.25;;;1.35
55038;BMP280;40937;53.594;10.034;2023-02-28T06:11:11;103362.69;;;1.36
55038;BMP280;40937;53.594;10.034;2023-02-28T06:13:39;103356.13;;;1.30
55038;BMP280;40937;53.594;10.034;2023-02-28T06:16:10;103365.81;;;1.28
55038;BMP280;40937;53.594;10.034;2023-02-28T06:18:38;103358.94;;;1.27
55038;BMP280;40937;53.594;10.034;2023-02-28T06:21:05;103359.13;;;1.24
55038;BMP280;40937;53.594;10.034;2023-02-28T06:23:34;103373.81;;;1.11
55038;BMP280;40937;53.594;10.034;2023-02-28T06:26:01;103365.06;;;0.99
55038;BMP280;40937;53.594;10.034;2023-02-28T06:28:28;103371.28;;;0.96
55038;BMP280;40937;53.594;10.034;2023-02-28T06:30:55;103376.28;;;0.99
55038;BMP280;40937;53.594;10.034;2023-02-28T06:33:23;103377.47;;;1.08
55038;BMP280;40937;53.594;10.034;2023-02-28T06:35:51;103377.56;;;1.06
55038;BMP280;40937;53.594;10.034;2023-02-28T06:38:18;103376.84;;;1.04
55038;BMP280;40937;53.594;10.034;2023-02-28T06:40:53;103379.44;;;1.04
55038;BMP280;40937;53.594;10.034;2023-02-28T06:43:21;103380.06;;;1.08
55038;BMP280;40937;53.594;10.034;2023-02-28T06:45:48;103375.06;;;1.05
55038;BMP280;40937;53.594;10.034;2023-02-28T06:48:16;103380.91;;;1.08
55038;BMP280;40937;53.594;10.034;2023-02-28T06:50:44;103379.50;;;1.17
55038;BMP280;40937;53.594;10.034;2023-02-28T06:53:12;103381.06;;;1.20
55038;BMP280;40937;53.594;10.034;2023-02-28T06:55:40;103383.03;;;1.16
55038;BMP280;40937;53.594;10.034;2023-02-28T06:58:09;103373.44;;;1.17
55038;BMP280;40937;53.594;10.034;2023-02-28T07:00:41;103382.53;;;1.24
55038;BMP280;40937;53.594;10.034;2023-02-28T07:03:09;103381.22;;;1.31
55038;BMP280;40937;53.594;10.034;2023-02-28T07:05:37;103384.31;;;1.36
55038;BMP280;40937;53.594;10.034;2023-02-28T07:08:05;103389.31;;;1.39
55038;BMP280;40937;53.594;10.034;2023-02-28T07:10:33;103388.22;;;1.43
55038;BMP280;40937;53.594;10.034;2023-02-28T07:13:00;103392.34;;;1.46
55038;BMP280;40937;53.594;10.034;2023-02-28T07:15:29;103391.44;;;1.47
55038;BMP280;40937;53.594;10.034;2023-02-28T07:17:56;103395.41;;;1.53
55038;BMP280;40937;53.594;10.034;2023-02-28T07:20:23;103393.34;;;1.58
55038;BMP280;40937;53.594;10.034;2023-02-28T07:22:51;103388.13;;;1.58
55038;BMP280;40937;53.594;10.034;2023-02-28T07:25:22;103396.66;;;1.60
55038;BMP280;40937;53.594;10.034;2023-02-28T07:27:50;103399.78;;;1.65
55038;BMP280;40937;53.594;10.034;2023-02-28T07:30:18;103396.06;;;1.69
55038;BMP280;40937;53.594;10.034;2023-02-28T07:32:46;103396.06;;;1.69
55038;BMP280;40937;53.594;10.034;2023-02-28T07:35:14;103396.59;;;1.74
55038;BMP280;40937;53.594;10.034;2023-02-28T07:37:42;103397.16;;;1.79
55038;BMP280;40937;53.594;10.034;2023-02-28T07:40:11;103396.75;;;1.86
55038;BMP280;40937;53.594;10.034;2023-02-28T07:42:39;103398.91;;;1.92
55038;BMP280;40937;53.594;10.034;2023-02-28T07:45:08;103392.34;;;1.99
55038;BMP280;40937;53.594;10.034;2023-02-28T07:47:37;103395.69;;;2.01
55038;BMP280;40937;53.594;10.034;2023-02-28T07:50:07;103394.53;;;2.05
55038;BMP280;40937;53.594;10.034;2023-02-28T07:52:35;103396.72;;;2.11
55038;BMP280;40937;53.594;10.034;2023-02-28T07:55:03;103392.78;;;2.18
55038;BMP280;40937;53.594;10.034;2023-02-28T07:57:31;103393.09;;;2.27
55038;BMP280;40937;53.594;10.034;2023-02-28T07:59:58;103398.34;;;2.38
55038;BMP280;40937;53.594;10.034;2023-02-28T08:02:26;103405.75;;;2.44
55038;BMP280;40937;53.594;10.034;2023-02-28T08:04:53;103400.00;;;2.52
55038;BMP280;40937;53.594;10.034;2023-02-28T08:07:21;103395.22;;;2.59
55038;BMP280;40937;53.594;10.034;2023-02-28T08:09:48;103405.22;;;2.65
55038;BMP280;40937;53.594;10.034;2023-02-28T08:12:16;103404.13;;;2.67
55038;BMP280;40937;53.594;10.034;2023-02-28T08:14:43;103406.44;;;2.72
55038;BMP280;40937;53.594;10.034;2023-02-28T08:17:10;103403.28;;;2.80
55038;BMP280;40937;53.594;10.034;2023-02-28T08:19:38;103405.25;;;2.89
55038;BMP280;40937;53.594;10.034;2023-02-28T08:22:05;103409.31;;;2.93
55038;BMP280;40937;53.594;10.034;2023-02-28T08:24:34;103406.97;;;3.01
55038;BMP280;40937;53.594;10.034;2023-02-28T08:27:02;103403.81;;;3.09
55038;BMP280;40937;53.594;10.034;2023-02-28T08:29:29;103404.78;;;3.19
55038;BMP280;40937;53.594;10.034;2023-02-28T08:31:56;103401.50;;;3.28
55038;BMP280;40937;53.594;10.034;2023-02-28T08:34:24;103404.19;;;3.40
55038;BMP280;40937;53.594;10.034;2023-02-28T08:36:51;103401.00;;;3.47
55038;BMP280;40937;53.594;10.034;2023-02-28T08:39:20;103398.53;;;3.57
55038;BMP280;40937;53.594;10.034;2023-02-28T08:41:48;103403.78;;;3.69
55038;BMP280;40937;53.594;10.034;2023-02-28T08:44:15;103405.94;;;3.75
55038;BMP280;40937;53.594;10.034;2023-02-28T08:46:43;103406.16;;;3.83
55038;BMP280;40937;53.594;10.034;2023-02-28T08:49:10;103403.09;;;3.89
55038;BMP280;40937;53.594;10.034;2023-02-28T08:51:38;103406.22;;;3.94
55038;BMP280;40937;53.594;10.034;2023-02-28T08:54:05;103409.31;;;3.99
55038;BMP280;40937;53.594;10.034;2023-02-28T08:56:33;103406.06;;;4.07
55038;BMP280;40937;53.594;10.034;2023-02-28T08:59:01;103411.66;;;4.14
55038;BMP280;40937;53.594;10.034;2023-02-28T09:01:29;103418.91;;;4.21
55038;BMP280;40937;53.594;10.034;2023-02-28T09:03:58;103407.97;;;4.28
55038;BMP280;40937;53.594;10.034;2023-02-28T09:06:26;103413.78;;;4.31
55038;BMP280;40937;53.594;10.034;2023-02-28T09:08:56;103411.44;;;4.39
55038;BMP280;40937;53.594;10.034;2023-02-28T09:11:25;103412.81;;;4.44
55038;BMP280;40937;53.594;10.034;2023-02-28T09:13:52;103422.81;;;4.50
55038;BMP280;40937;53.594;10.034;2023-02-28T09:16:22;103420.69;;;4.55
55038;BMP280;40937;53.594;10.034;2023-02-28T09:18:50;103418.53;;;4.60
55038;BMP280;40937;53.594;10.034;2023-02-28T09:21:18;103414.84;;;4.63
55038;BMP280;40937;53.594;10.034;2023-02-28T09:23:47;103418.84;;;4.67
55038;BMP280;40937;53.594;10.034;2023-02-28T09:26:16;103412.56;;;4.69
55038;BMP280;40937;53.594;10.034;2023-02-28T09:28:44;103414.47;;;4.67
55038;BMP280;40937;53.594;10.034;2023-02-28T09:31:13;103420.88;;;4.74
55038;BMP280;40937;53.594;10.034;2023-02-28T09:33:42;103418.44;;;4.83
55038;BMP280;40937;53.594;10.034;2023-02-28T09:36:09;103427.84;;;4.85
55038;BMP280;40937;53.594;10.034;2023-02-28T09:38:36;103423.44;;;4.86
55038;BMP280;40937;53.594;10.034;2023-02-28T09:41:11;103421.56;;;4.88
55038;BMP280;40937;53.594;10.034;2023-02-28T09:43:43;103421.31;;;4.91
55038;BMP280;40937;53.594;10.034;2023-02-28T09:46:27;103427.94;;;4.95
55038;BMP280;40937;53.594;10.034;2023-02-28T09:48:58;103426.06;;;4.97
55038;BMP280;40937;53.594;10.034;2023-02-28T09:51:33;103430.66;;;5.05
55038;BMP280;40937;53.594;10.034;2023-02-28T09:54:01;103433.16;;;5.06
55038;BMP280;40937;53.594;10.034;2023-02-28T09:56:34;103434.66;;;5.09
55038;BMP280;40937;53.594;10.034;2023-02-28T09:59:10;103430.75;;;5.14
55038;BMP280;40937;53.594;10.034;2023-02-28T10:01:45;103430.47;;;5.18
55038;BMP280;40937;53.594;10.034;2023-02-28T10:04:33;103430.09;;;5.22
55038;BMP280;40937;53.594;10.034;2023-02-28T10:07:10;103428.31;;;5.23
55038;BMP280;40937;53.594;10.034;2023-02-28T10:09:45;103426.31;;;5.26
55038;BMP280;40937;53.594;10.034;2023-02-28T10:12:15;103427.69;;;5.30
55038;BMP280;40937;53.594;10.034;2023-02-28T10:14:46;103416.41;;;5.30
55038;BMP280;40937;53.594;10.034;2023-02-28T10:17:17;103419.44;;;5.35
55038;BMP280;40937;53.594;10.034;2023-02-28T10:19:56;103416.56;;;5.38
55038;BMP280;40937;53.594;10.034;2023-02-28T10:22:29;103417.03;;;5.43
55038;BMP280;40937;53.594;10.034;2023-02-28T10:25:00;103426.44;;;5.46
55038;BMP280;40937;53.594;10.034;2023-02-28T10:27:30;103416.78;;;5.46
55038;BMP280;40937;53.594;10.034;2023-02-28T10:29:58;103420.94;;;5.49
55038;BMP280;40937;53.594;10.034;2023-02-28T10:32:28;103420.94;;;5.49
55038;BMP280;40937;53.594;10.034;2023-02-28T10:35:00;103424.56;;;5.58
55038;BMP280;40937;53.594;10.034;2023-02-28T10:37:30;103418.97;;;5.62
55038;BMP280;40937;53.594;10.034;2023-02-28T10:39:58;103420.47;;;5.65
55038;BMP280;40937;53.594;10.034;2023-02-28T10:42:26;103413.31;;;5.67
55038;BMP280;40937;53.594;10.034;2023-02-28T10:45:13;103421.88;;;5.69
55038;BMP280;40937;53.594;10.034;2023-02-28T10:47:49;103412.81;;;5.73
55038;BMP280;40937;53.594;10.034;2023-02-28T10:50:32;103412.28;;;5.79
55038;BMP280;40937;53.594;10.034;2023-02-28T10:53:16;103421.53;;;5.83
55038;BMP280;40937;53.594;10.034;2023-02-28T10:55:44;103417.81;;;5.86
55038;BMP280;40937;53.594;10.034;2023-02-28T10:58:21;103424.56;;;5.88
55038;BMP280;40937;53.594;10.034;2023-02-28T11:00:49;103417.81;;;5.86
55038;BMP280;40937;53.594;10.034;2023-02-28T11:03:31;103422.22;;;5.85
55038;BMP280;40937;53.594;10.034;2023-02-28T11:06:05;103425.31;;;5.90
55038;BMP280;40937;53.594;10.034;2023-02-28T11:08:32;103424.75;;;5.97
55038;BMP280;40937;53.594;10.034;2023-02-28T11:11:04;103428.06;;;5.99
55038;BMP280;40937;53.594;10.034;2023-02-28T11:13:33;103416.38;;;6.03
55038;BMP280;40937;53.594;10.034;2023-02-28T11:16:03;103417.66;;;6.08
55038;BMP280;40937;53.594;10.034;2023-02-28T11:18:39;103425.81;;;6.15
55038;BMP280;40937;53.594;10.034;2023-02-28T11:21:09;103421.69;;;6.22
55038;BMP280;40937;53.594;10.034;2023-02-28T11:23:40;103417.84;;;6.26
55038;BMP280;40937;53.594;10.034;2023-02-28T11:26:08;103425.19;;;6.33
55038;BMP280;40937;53.594;10.034;2023-02-28T11:28:38;103406.44;;;6.37
55038;BMP280;40937;53.594;10.034;2023-02-28T11:31:16;103406.69;;;6.44
55038;BMP280;40937;53.594;10.034;2023-02-28T11:33:47;103410.84;;;6.46
55038;BMP280;40937;53.594;10.034;2023-02-28T11:36:19;103401.44;;;6.54
55038;BMP280;40937;53.594;10.034;2023-02-28T11:38:48;103410.34;;;6.62
55038;BMP280;40937;53.594;10.034;2023-02-28T11:41:32;103396.66;;;6.69
55038;BMP280;40937;53.594;10.034;2023-02-28T11:44:23;103393.34;;;6.76
55038;BMP280;40937;53.594;10.034;2023-02-28T11:46:58;103397.91;;;6.84
55038;BMP280;40937;53.594;10.034;2023-02-28T11:49:32;103395.44;;;6.92
55038;BMP280;40937;53.594;10.034;2023-02-28T11:52:10;103381.47;;;7.01
55038;BMP280;40937;53.594;10.034;2023-02-28T11:55:04;103382.97;;;7.14
55038;BMP280;40937;53.594;10.034;2023-02-28T11:58:03;103386.28;;;7.26
55038;BMP280;40937;53.594;10.034;2023-02-28T12:00:40;103381.25;;;7.32
55038;BMP280;40937;53.594;10.034;2023-02-28T12:03:22;103372.53;;;7.41
55038;BMP280;40937;53.594;10.034;2023-02-28T12:06:01;103369.88;;;7.51
55038;BMP280;40937;53.594;10.034;2023-02-28T12:08:50;103359.31;;;7.61
55038;BMP280;40937;53.594;10.034;2023-02-28T12:11:29;103372.28;;;7.72
55038;BMP280;40937;53.594;10.034;2023-02-28T12:14:09;103363.53;;;7.82
55038;BMP280;40937;53.594;10.034;2023-02-28T12:16:49;103367.19;;;7.89
55038;BMP280;40937;53.594;10.034;2023-02-28T12:19:21;103357.84;;;7.86
55038;BMP280;40937;53.594;10.034;2023-02-28T12:22:17;103354.44;;;7.94
55038;BMP280;40937;53.594;10.034;2023-02-28T12:24:59;103348.84;;;8.07
55038;BMP280;40937;53.594;10.034;2023-02-28T12:27:32;103343.06;;;8.21
55038;BMP280;40937;53.594;10.034;2023-02-28T12:30:03;103341.72;;;8.35
55038;BMP280;40937;53.594;10.034;2023-02-28T12:32:36;103339.00;;;8.45
55038;BMP280;40937;53.594;10.034;2023-02-28T12:35:10;103336.59;;;8.51
55038;BMP280;40937;53.594;10.034;2023-02-28T12:37:41;103332.09;;;8.62
55038;BMP280;40937;53.594;10.034;2023-02-28T12:40:13;103323.94;;;8.73
55038;BMP280;40937;53.594;10.034;2023-02-28T12:42:47;103320.06;;;8.85
55038;BMP280;40937;53.594;10.034;2023-02-28T12:45:18;103314.53;;;8.96
55038;BMP280;40937;53.594;10.034;2023-02-28T12:47:49;103312.09;;;9.03
55038;BMP280;40937;53.594;10.034;2023-02-28T12:50:18;103311.84;;;9.14
55038;BMP280;40937;53.594;10.034;2023-02-28T12:52:51;103306.44;;;9.24
55038;BMP280;40937;53.594;10.034;2023-02-28T12:55:27;103301.06;;;9.34
55038;BMP280;40937;53.594;10.034;2023-02-28T12:58:05;103299.09;;;9.36
55038;BMP280;40937;53.594;10.034;2023-02-28T13:00:36;103295.34;;;9.47
55038;BMP280;40937;53.594;10.034;2023-02-28T13:03:22;103296.34;;;9.54
55038;BMP280;40937;53.594;10.034;2023-02-28T13:06:16;103296.22;;;9.64
55038;BMP280;40937;53.594;10.034;2023-02-28T13:09:02;103289.94;;;9.65
55038;BMP280;40937;53.594;10.034;2023-02-28T13:11:39;103286.50;;;9.72
55038;BMP280;40937;53.594;10.034;2023-02-28T13:14:18;103290.16;;;9.80
55038;BMP280;40937;53.594;10.034;2023-02-28T13:17:03;103283.22;;;9.79
55038;BMP280;40937;53.594;10.034;2023-02-28T13:19:38;103284.88;;;9.80
55038;BMP280;40937;53.594;10.034;2023-02-28T13:22:17;103277.94;;;9.79
55038;BMP280;40937;53.594;10.034;2023-02-28T13:24:47;103277.78;;;9.72
55038;BMP280;40937;53.594;10.034;2023-02-28T13:27:35;103269.81;;;9.55
55038;BMP280;40937;53.594;10.034;2023-02-28T13:33:21;103265.81;;;9.35
55038;BMP280;40937;53.594;10.034;2023-02-28T13:36:06;103269.72;;;9.23
55038;BMP280;40937;53.594;10.034;2023-02-28T13:38:37;103270.84;;;9.12
55038;BMP280;40937;53.594;10.034;2023-02-28T13:41:43;103270.16;;;9.02
55038;BMP280;40937;53.594;10.034;2023-02-28T13:44:14;103263.13;;;8.84
55038;BMP280;40937;53.594;10.034;2023-02-28T13:47:20;103268.31;;;8.68
55038;BMP280;40937;53.594;10.034;2023-02-28T13:49:49;103270.16;;;8.49
55038;BMP280;40937;53.594;10.034;2023-02-28T13:52:20;103264.59;;;8.52
55038;BMP280;40937;53.594;10.034;2023-02-28T13:58:04;103259.09;;;8.46
55038;BMP280;40937;53.594;10.034;2023-02-28T14:00:51;103268.50;;;8.48
55038;BMP280;40937;53.594;10.034;2023-02-28T14:03:37;103267.78;;;8.38
55038;BMP280;40937;53.594;10.034;2023-02-28T14:06:14;103269.34;;;8.31
55038;BMP280;40937;53.594;10.034;2023-02-28T14:08:52;103276.88;;;8.26
55038;BMP280;40937;53.594;10.034;2023-02-28T14:11:28;103278.13;;;8.22
55038;BMP280;40937;53.594;10.034;2023-02-28T14:13:55;103282.75;;;8.19
55038;BMP280;40937;53.594;10.034;2023-02-28T14:16:25;103280.94;;;8.20
55038;BMP280;40937;53.594;10.034;2023-02-28T14:18:56;103278.44;;;8.18
55038;BMP280;40937;53.594;10.034;2023-02-28T14:21:27;103276.66;;;8.19
55038;BMP280;40937;53.594;10.034;2023-02-28T14:27:24;103276.13;;;8.15
55038;BMP280;40937;53.594;10.034;2023-02-28T14:30:37;103276.72;;;8.09
55038;BMP280;40937;53.594;10.034;2023-02-28T14:33:25;103281.31;;;8.07
55038;BMP280;40937;53.594;10.034;2023-02-28T14:36:01;103275.25;;;8.07
55038;BMP280;40937;53.594;10.034;2023-02-28T14:38:33;103274.38;;;8.06